Time;durP1;ratioP1;P1;durP2;ratioP2;P2;SDS_P1;SDS_P2;PMS_P1;PMS_P2;Temp;Humidity;BMP_temperature;BMP_pressure;BME280_temperature;BME280_humidity;BME280_pressure;Samples;Min_cycle;Max_cycle;Signal;HPM_P1;HPM_P2
2023/09/09 00:00:07;;;;;;;;;;;;;;;27.50;nan;97982.44;4793360;29;20453;-61
2023/09/09 00:02:38;;;;;;;;;;;;;;;27.46;nan;97973.28;4787996;29;19951;-61
2023/09/09 00:05:07;;;;;;;;;;;;;;;27.42;nan;97963.34;4791998;29;20371;-61
2023/09/09 00:07:37;;;;;;;;;;;;;;;27.47;nan;97958.56;4796831;29;19994;-61
2023/09/09 00:10:07;;;;;;;;;;;;;;;27.54;nan;97941.78;4811686;29;19928;-62
2023/09/09 00:12:35;;;;;;;;;;;;;;;27.46;nan;97931.66;4819878;29;19964;-61
2023/09/09 00:15:05;;;;;;;;;;;;;;;27.38;nan;97927.03;4811060;29;19985;-61
2023/09/09 00:17:34;;;;;;;;;;;;;;;27.36;nan;97935.50;4803621;29;19935;-61
2023/09/09 00:20:06;;;;;;;;;;;;;;;27.32;nan;97939.19;4808687;29;20170;-61
2023/09/09 00:22:35;;;;;;;;;;;;;;;27.33;nan;97919.84;4804487;29;19989;-61
2023/09/09 00:25:04;;;;;;;;;;;;;;;27.38;nan;97908.00;4819249;29;19940;-61
2023/09/09 00:27:33;;;;;;;;;;;;;;;27.41;nan;97910.06;4795770;29;20004;-61
2023/09/09 00:30:02;;;;;;;;;;;;;;;27.17;nan;97911.34;4809171;29;19932;-61
2023/09/09 00:32:32;;;;;;;;;;;;;;;27.41;nan;97910.88;4795919;29;20475;-61
2023/09/09 00:35:01;;;;;;;;;;;;;;;27.15;nan;97891.03;4801843;29;19965;-64
2023/09/09 00:37:29;;;;;;;;;;;;;;;27.18;nan;97855.06;4801579;29;19936;-61
2023/09/09 00:39:58;;;;;;;;;;;;;;;27.11;nan;97860.19;4813472;29;19932;-61
2023/09/09 00:42:27;;;;;;;;;;;;;;;27.27;nan;97883.84;4818390;29;19935;-61
2023/09/09 00:44:56;;;;;;;;;;;;;;;27.38;nan;97897.94;4781535;29;19926;-61
2023/09/09 00:47:25;;;;;;;;;;;;;;;27.01;nan;97901.28;4782240;30;19940;-61
2023/09/09 00:49:54;;;;;;;;;;;;;;;27.19;nan;97902.88;4795371;29;19925;-60
2023/09/09 00:52:23;;;;;;;;;;;;;;;27.18;nan;97887.69;4799790;29;19932;-61
2023/09/09 00:54:52;;;;;;;;;;;;;;;27.17;nan;97876.00;4819281;29;19948;-61
2023/09/09 00:57:21;;;;;;;;;;;;;;;27.09;nan;97859.69;4818978;29;19932;-61
2023/09/09 00:59:49;;;;;;;;;;;;;;;27.17;nan;97865.13;4818962;29;19925;-61
2023/09/09 01:02:18;;;;;;;;;;;;;;;27.15;nan;97852.97;4807505;29;19925;-61
2023/09/09 01:04:52;;;;;;;;;;;;;;;26.86;nan;97829.19;4788818;29;19929;-61
2023/09/09 01:07:21;;;;;;;;;;;;;;;26.79;nan;97832.34;4771973;29;19933;-61
2023/09/09 01:09:50;;;;;;;;;;;;;;;27.06;nan;97844.84;4786059;29;19985;-61
2023/09/09 01:12:22;;;;;;;;;;;;;;;27.00;nan;97848.03;4790512;29;20573;-61
2023/09/09 01:14:51;;;;;;;;;;;;;;;27.11;nan;97854.75;4787449;29;20518;-61
2023/09/09 01:17:20;;;;;;;;;;;;;;;27.27;nan;97856.66;4786413;29;19940;-61
2023/09/09 01:19:51;;;;;;;;;;;;;;;27.24;nan;97867.38;4787294;29;19997;-61
2023/09/09 01:22:20;;;;;;;;;;;;;;;27.19;nan;97864.81;4789907;29;20502;-61
2023/09/09 01:24:49;;;;;;;;;;;;;;;27.37;nan;97871.84;4791862;29;19954;-61
2023/09/09 01:27:18;;;;;;;;;;;;;;;27.30;nan;97881.63;4790701;29;19932;-61
2023/09/09 01:29:47;;;;;;;;;;;;;;;27.30;nan;97873.47;4785558;29;19925;-61
2023/09/09 01:32:16;;;;;;;;;;;;;;;27.20;nan;97877.28;4776793;29;20354;-61
2023/09/09 01:34:44;;;;;;;;;;;;;;;27.43;nan;97886.09;4783901;29;19925;-61
2023/09/09 01:37:13;;;;;;;;;;;;;;;27.28;nan;97900.97;4772692;29;20050;-61
2023/09/09 01:39:42;;;;;;;;;;;;;;;27.30;nan;97912.34;4786371;29;20012;-61
2023/09/09 01:42:11;;;;;;;;;;;;;;;27.28;nan;97917.28;4786256;29;20442;-61
2023/09/09 01:44:40;;;;;;;;;;;;;;;27.42;nan;97922.56;4796783;29;19956;-61
2023/09/09 01:47:09;;;;;;;;;;;;;;;27.50;nan;97925.31;4787786;29;20031;-61
2023/09/09 01:49:38;;;;;;;;;;;;;;;27.65;nan;97932.19;4794540;29;19930;-61
2023/09/09 01:52:07;;;;;;;;;;;;;;;27.73;nan;97944.16;4794713;29;19939;-61
2023/09/09 01:54:36;;;;;;;;;;;;;;;27.78;nan;97933.91;4793704;29;19925;-61
2023/09/09 01:57:04;;;;;;;;;;;;;;;27.89;nan;97937.06;4792127;29;19937;-61
2023/09/09 01:59:33;;;;;;;;;;;;;;;27.91;nan;97943.00;4787272;29;19933;-61
2023/09/09 02:02:02;;;;;;;;;;;;;;;28.11;nan;97953.22;4793458;29;20012;-61
2023/09/09 02:04:31;;;;;;;;;;;;;;;28.29;nan;97968.41;4794477;29;19936;-61
2023/09/09 02:07:00;;;;;;;;;;;;;;;28.69;nan;97971.59;4790441;29;19925;-61
2023/09/09 02:09:29;;;;;;;;;;;;;;;29.04;nan;97980.41;4793453;29;19925;-61
2023/09/09 02:11:58;;;;;;;;;;;;;;;29.29;nan;97984.13;4790947;29;19925;-61
2023/09/09 02:14:27;;;;;;;;;;;;;;;29.38;nan;97985.69;4769428;29;19921;-61
2023/09/09 02:16:56;;;;;;;;;;;;;;;29.44;nan;97981.59;4788158;29;20016;-61
2023/09/09 02:19:25;;;;;;;;;;;;;;;29.57;nan;97981.66;4775488;29;19932;-61
2023/09/09 02:21:55;;;;;;;;;;;;;;;29.53;nan;98000.63;4783480;29;20433;-61
2023/09/09 02:24:24;;;;;;;;;;;;;;;29.58;nan;97999.63;4783601;29;19943;-61
2023/09/09 02:26:54;;;;;;;;;;;;;;;29.61;nan;98007.94;4773780;29;19936;-61
2023/09/09 02:29:23;;;;;;;;;;;;;;;29.87;nan;98007.75;4784964;29;19978;-63
2023/09/09 02:31:52;;;;;;;;;;;;;;;30.00;nan;98020.34;4786346;29;20629;-63
2023/09/09 02:34:21;;;;;;;;;;;;;;;29.69;nan;98020.75;4791452;29;19937;-63
2023/09/09 02:37:10;;;;;;;;;;;;;;;29.54;nan;98037.72;4788521;29;19925;-64
2023/09/09 02:39:41;;;;;;;;;;;;;;;29.84;nan;98049.38;4790404;29;19972;-62
2023/09/09 02:42:11;;;;;;;;;;;;;;;29.97;nan;98050.25;4775272;29;20373;-64
2023/09/09 02:44:41;;;;;;;;;;;;;;;29.36;nan;98047.16;4773587;29;20428;-64
2023/09/09 02:47:12;;;;;;;;;;;;;;;29.63;nan;98063.03;4772260;29;19933;-61
2023/09/09 02:49:43;;;;;;;;;;;;;;;29.59;nan;98053.91;4774584;29;20361;-61
2023/09/09 02:52:13;;;;;;;;;;;;;;;29.31;nan;98060.97;4789022;29;21089;-61
2023/09/09 02:54:42;;;;;;;;;;;;;;;29.47;nan;98064.75;4772564;29;20515;-61
2023/09/09 02:57:12;;;;;;;;;;;;;;;29.70;nan;98065.22;4787411;29;20157;-61
2023/09/09 02:59:41;;;;;;;;;;;;;;;29.63;nan;98062.22;4790688;29;20554;-61
2023/09/09 03:02:13;;;;;;;;;;;;;;;29.59;nan;98067.56;4781543;29;19934;-61
2023/09/09 03:04:42;;;;;;;;;;;;;;;29.42;nan;98071.19;4785297;29;19933;-61
2023/09/09 03:07:11;;;;;;;;;;;;;;;29.43;nan;98063.81;4779801;29;19959;-61
2023/09/09 03:09:39;;;;;;;;;;;;;;;29.69;nan;98091.72;4783579;29;19926;-61
2023/09/09 03:12:08;;;;;;;;;;;;;;;29.82;nan;98076.22;4788412;29;19953;-61
2023/09/09 03:14:37;;;;;;;;;;;;;;;29.50;nan;98079.66;4775279;29;19932;-61
2023/09/09 03:17:06;;;;;;;;;;;;;;;29.47;nan;98074.88;4788661;29;19929;-61
2023/09/09 03:19:35;;;;;;;;;;;;;;;29.48;nan;98070.97;4770817;29;20022;-61
2023/09/09 03:22:05;;;;;;;;;;;;;;;29.59;nan;98067.56;4781470;29;19929;-62
2023/09/09 03:24:34;;;;;;;;;;;;;;;29.70;nan;98076.13;4775473;29;19930;-61
2023/09/09 03:27:02;;;;;;;;;;;;;;;29.54;nan;98070.47;4789101;29;20366;-61
2023/09/09 03:29:32;;;;;;;;;;;;;;;29.85;nan;98081.81;4789637;29;19929;-61
2023/09/09 03:32:03;;;;;;;;;;;;;;;29.99;nan;98086.22;4773688;29;20514;-61
2023/09/09 03:34:32;;;;;;;;;;;;;;;29.76;nan;98100.19;4787778;29;19933;-61
2023/09/09 03:37:01;;;;;;;;;;;;;;;29.53;nan;98090.69;4789260;29;19937;-62
2023/09/09 03:39:30;;;;;;;;;;;;;;;29.70;nan;98090.56;4785437;29;19957;-61
2023/09/09 03:41:59;;;;;;;;;;;;;;;29.86;nan;98082.59;4786050;29;19925;-62
2023/09/09 03:44:29;;;;;;;;;;;;;;;30.00;nan;98082.38;4786674;29;19935;-62
2023/09/09 03:46:59;;;;;;;;;;;;;;;30.13;nan;98082.09;4783829;29;19932;-62
2023/09/09 03:49:28;;;;;;;;;;;;;;;30.35;nan;98083.66;4798962;29;22581;-61
2023/09/09 03:51:57;;;;;;;;;;;;;;;30.52;nan;98088.16;4799808;29;19977;-61
2023/09/09 03:54:26;;;;;;;;;;;;;;;30.52;nan;98078.03;4782076;29;20021;-62
2023/09/09 03:57:12;;;;;;;;;;;;;;;30.45;nan;98082.47;4794273;29;19932;-61
2023/09/09 03:59:41;;;;;;;;;;;;;;;30.41;nan;98078.75;4799237;29;19933;-62
2023/09/09 04:02:11;;;;;;;;;;;;;;;30.44;nan;98083.56;4773628;29;19972;-62
2023/09/09 04:04:40;;;;;;;;;;;;;;;30.52;nan;98078.03;4780980;29;20510;-62
2023/09/09 04:07:09;;;;;;;;;;;;;;;30.75;nan;98081.97;4796968;29;19929;-62
2023/09/09 04:09:40;;;;;;;;;;;;;;;30.69;nan;98085.25;4794230;29;19929;-61
2023/09/09 04:12:10;;;;;;;;;;;;;;;30.84;nan;98068.19;4795960;29;19960;-62
2023/09/09 04:14:42;;;;;;;;;;;;;;;30.68;nan;98075.44;4783155;29;20031;-61
2023/09/09 04:17:11;;;;;;;;;;;;;;;30.80;nan;98077.41;4792968;29;20871;-59
2023/09/09 04:19:40;;;;;;;;;;;;;;;30.98;nan;98068.63;4793119;29;20531;-62
2023/09/09 04:22:09;;;;;;;;;;;;;;;30.85;nan;98066.25;4793343;29;19997;-59
2023/09/09 04:24:37;;;;;;;;;;;;;;;30.82;nan;98064.97;4791985;29;19925;-61
2023/09/09 04:27:06;;;;;;;;;;;;;;;30.70;nan;98064.97;4793852;29;19925;-61
2023/09/09 04:29:35;;;;;;;;;;;;;;;31.07;nan;98061.13;4792942;29;20522;-61
2023/09/09 04:32:05;;;;;;;;;;;;;;;31.33;nan;98060.00;4788097;29;19933;-61
2023/09/09 04:34:34;;;;;;;;;;;;;;;31.61;nan;98063.63;4795241;29;19933;-61
2023/09/09 04:37:03;;;;;;;;;;;;;;;31.57;nan;98068.19;4789263;29;19936;-62
2023/09/09 04:39:33;;;;;;;;;;;;;;;31.66;nan;98063.38;4791847;29;19936;-61
2023/09/09 04:42:01;;;;;;;;;;;;;;;31.88;nan;98060.13;4784421;29;19942;-61
2023/09/09 04:44:30;;;;;;;;;;;;;;;32.22;nan;98055.25;4786113;29;19933;-61
2023/09/09 04:46:59;;;;;;;;;;;;;;;32.24;nan;98052.94;4784201;29;20441;-61
2023/09/09 04:49:28;;;;;;;;;;;;;;;32.66;nan;98053.31;4791080;29;19929;-61
2023/09/09 04:51:57;;;;;;;;;;;;;;;33.03;nan;98048.34;4783962;29;19931;-61
2023/09/09 04:54:26;;;;;;;;;;;;;;;33.00;nan;98049.84;4782634;29;19936;-61
2023/09/09 04:56:54;;;;;;;;;;;;;;;33.51;nan;98050.66;4774382;29;19925;-61
2023/09/09 04:59:23;;;;;;;;;;;;;;;33.90;nan;98046.06;4785421;29;20513;-61
2023/09/09 05:01:52;;;;;;;;;;;;;;;33.85;nan;98046.34;4793717;29;19940;-60
2023/09/09 05:04:21;;;;;;;;;;;;;;;33.91;nan;98046.81;4793669;29;19940;-61
2023/09/09 05:06:53;;;;;;;;;;;;;;;33.18;nan;98042.88;4781903;29;19929;-62
2023/09/09 05:09:22;;;;;;;;;;;;;;;33.65;nan;98040.00;4782418;29;19929;-61
2023/09/09 05:11:51;;;;;;;;;;;;;;;34.09;nan;98031.47;4775468;29;19937;-62
2023/09/09 05:14:20;;;;;;;;;;;;;;;34.09;nan;98028.72;4792640;29;19925;-60
2023/09/09 05:16:49;;;;;;;;;;;;;;;34.26;nan;98031.06;4783990;29;19933;-61
2023/09/09 05:19:18;;;;;;;;;;;;;;;34.05;nan;98023.16;4782274;29;19924;-61
2023/09/09 05:21:47;;;;;;;;;;;;;;;34.42;nan;98029.00;4775704;29;19925;-60
2023/09/09 05:24:16;;;;;;;;;;;;;;;35.08;nan;98025.81;4789627;29;20416;-59
2023/09/09 05:26:44;;;;;;;;;;;;;;;34.67;nan;98019.25;4788166;29;19955;-61
2023/09/09 05:29:13;;;;;;;;;;;;;;;34.53;nan;98018.97;4776317;29;19929;-60
2023/09/09 05:31:42;;;;;;;;;;;;;;;34.89;nan;98011.34;4791954;29;19925;-59
2023/09/09 05:34:11;;;;;;;;;;;;;;;34.86;nan;98012.09;4789393;29;20023;-62
2023/09/09 05:36:40;;;;;;;;;;;;;;;35.31;nan;98014.78;4789249;29;19964;-61
2023/09/09 05:39:09;;;;;;;;;;;;;;;34.83;nan;98008.09;4772402;29;19935;-60
2023/09/09 05:41:38;;;;;;;;;;;;;;;34.91;nan;98009.03;4774181;29;19941;-61
2023/09/09 05:44:07;;;;;;;;;;;;;;;34.95;nan;98007.94;4786453;29;20008;-61
2023/09/09 05:46:36;;;;;;;;;;;;;;;34.74;nan;98004.03;4768803;29;19963;-61
2023/09/09 05:49:06;;;;;;;;;;;;;;;35.17;nan;98002.78;4784113;29;19932;-61
2023/09/09 05:51:36;;;;;;;;;;;;;;;35.17;nan;98000.00;4804823;29;19928;-61
2023/09/09 05:54:05;;;;;;;;;;;;;;;35.13;nan;98003.50;4777901;29;19936;-61
2023/09/09 05:56:34;;;;;;;;;;;;;;;35.44;nan;97990.56;4781525;29;19925;-61
2023/09/09 05:59:07;;;;;;;;;;;;;;;35.41;nan;97994.84;4773969;29;20041;-61
2023/09/09 06:01:37;;;;;;;;;;;;;;;35.63;nan;97984.88;4775442;29;19998;-61
2023/09/09 06:04:06;;;;;;;;;;;;;;;35.72;nan;97981.88;4782605;29;20035;-61
2023/09/09 06:06:35;;;;;;;;;;;;;;;36.18;nan;97980.47;4785800;29;19968;-62
2023/09/09 06:09:04;;;;;;;;;;;;;;;36.07;nan;97973.25;4772999;29;19929;-61
2023/09/09 06:11:33;;;;;;;;;;;;;;;35.82;nan;97979.25;4786854;29;19928;-61
2023/09/09 06:14:02;;;;;;;;;;;;;;;35.85;nan;97974.97;4759669;29;19932;-61
2023/09/09 06:16:32;;;;;;;;;;;;;;;36.13;nan;97972.53;4788849;29;19929;-61
2023/09/09 06:19:01;;;;;;;;;;;;;;;36.18;nan;97963.94;4781619;29;19941;-62
2023/09/09 06:21:31;;;;;;;;;;;;;;;36.09;nan;97959.84;4790703;29;20384;-61
2023/09/09 06:24:00;;;;;;;;;;;;;;;36.04;nan;97952.72;4776090;29;19929;-61
2023/09/09 06:26:33;;;;;;;;;;;;;;;35.87;nan;97956.06;4771530;29;19929;-61
2023/09/09 06:29:02;;;;;;;;;;;;;;;35.81;nan;97955.63;4774191;29;19940;-62
2023/09/09 06:31:31;;;;;;;;;;;;;;;35.93;nan;97949.06;4449937;29;10000217;-63
2023/09/09 06:34:00;;;;;;;;;;;;;;;35.74;nan;97943.72;4783224;29;19932;-62
2023/09/09 06:36:29;;;;;;;;;;;;;;;35.86;nan;97944.25;4766963;29;19955;-62
2023/09/09 06:38:58;;;;;;;;;;;;;;;35.88;nan;97928.16;4768664;29;20618;-62
2023/09/09 06:41:27;;;;;;;;;;;;;;;36.31;nan;97934.09;4776565;29;20922;-61
2023/09/09 06:43:57;;;;;;;;;;;;;;;36.35;nan;97932.16;4749786;29;20761;-62
2023/09/09 06:46:26;;;;;;;;;;;;;;;36.47;nan;97935.41;4774140;29;19929;-62
2023/09/09 06:48:55;;;;;;;;;;;;;;;35.89;nan;97917.91;4764173;29;19963;-62
2023/09/09 06:51:24;;;;;;;;;;;;;;;35.66;nan;97923.56;4777967;29;19929;-60
2023/09/09 06:53:53;;;;;;;;;;;;;;;35.98;nan;97927.44;4770171;29;19994;-61
2023/09/09 06:56:22;;;;;;;;;;;;;;;35.59;nan;97927.00;4777666;29;19925;-62
2023/09/09 06:58:51;;;;;;;;;;;;;;;35.67;nan;97919.66;4778019;29;19925;-61
2023/09/09 07:01:20;;;;;;;;;;;;;;;35.85;nan;97917.09;4777220;29;19928;-61
2023/09/09 07:03:49;;;;;;;;;;;;;;;35.51;nan;97910.75;4775949;29;19929;-61
2023/09/09 07:06:18;;;;;;;;;;;;;;;35.45;nan;97915.78;4780896;29;20020;-61
2023/09/09 07:08:49;;;;;;;;;;;;;;;35.50;nan;97912.72;4783411;29;19943;-61
2023/09/09 07:11:18;;;;;;;;;;;;;;;35.24;nan;97912.78;4783535;29;19937;-60
2023/09/09 07:13:47;;;;;;;;;;;;;;;35.40;nan;97913.41;4777415;29;19926;-61
2023/09/09 07:16:16;;;;;;;;;;;;;;;35.29;nan;97912.47;4787175;29;19972;-61
2023/09/09 07:18:45;;;;;;;;;;;;;;;35.09;nan;97911.00;4767239;29;19929;-61
2023/09/09 07:21:14;;;;;;;;;;;;;;;35.00;nan;97893.97;4786462;29;19933;-61
2023/09/09 07:23:43;;;;;;;;;;;;;;;35.04;nan;97894.81;4788890;29;19929;-61
2023/09/09 07:26:14;;;;;;;;;;;;;;;35.16;nan;97891.84;4784991;29;20302;-60
2023/09/09 07:28:45;;;;;;;;;;;;;;;35.39;nan;97889.78;4767585;29;19933;-61
2023/09/09 07:31:14;;;;;;;;;;;;;;;35.54;nan;97894.25;4782183;29;19925;-61
2023/09/09 07:33:43;;;;;;;;;;;;;;;35.60;nan;97890.00;4794720;29;20477;-62
2023/09/09 07:36:12;;;;;;;;;;;;;;;35.28;nan;97879.78;4780332;29;19925;-63
2023/09/09 07:38:40;;;;;;;;;;;;;;;35.30;nan;97881.00;4788836;29;19925;-61
2023/09/09 07:41:09;;;;;;;;;;;;;;;35.26;nan;97876.63;4785183;29;20629;-61
2023/09/09 07:43:38;;;;;;;;;;;;;;;35.47;nan;97868.59;4791580;29;19995;-61
2023/09/09 07:46:08;;;;;;;;;;;;;;;35.59;nan;97862.81;4446625;29;9999904;-61
2023/09/09 07:48:37;;;;;;;;;;;;;;;35.43;nan;97857.56;4765205;29;19933;-60
2023/09/09 07:51:06;;;;;;;;;;;;;;;35.37;nan;97858.25;4784355;29;19929;-62
2023/09/09 07:53:35;;;;;;;;;;;;;;;35.39;nan;97856.72;4779200;29;20040;-60
2023/09/09 07:56:04;;;;;;;;;;;;;;;35.36;nan;97851.19;4768240;29;19964;-61
2023/09/09 07:58:34;;;;;;;;;;;;;;;35.34;nan;97848.00;4768474;29;19925;-61
2023/09/09 08:01:04;;;;;;;;;;;;;;;35.47;nan;97843.81;4775019;29;20374;-60
2023/09/09 08:03:33;;;;;;;;;;;;;;;35.24;nan;97849.44;4769728;29;20013;-61
2023/09/09 08:06:04;;;;;;;;;;;;;;;35.04;nan;97837.78;4769198;29;19925;-61
2023/09/09 08:08:37;;;;;;;;;;;;;;;34.62;nan;97835.22;4769183;29;19929;-60
2023/09/09 08:11:06;;;;;;;;;;;;;;;34.61;nan;97830.09;4764513;29;19999;-60
2023/09/09 08:13:35;;;;;;;;;;;;;;;34.53;nan;97822.88;4770675;29;20023;-61
2023/09/09 08:16:04;;;;;;;;;;;;;;;34.40;nan;97810.53;4763669;29;19925;-61
2023/09/09 08:18:33;;;;;;;;;;;;;;;34.51;nan;97817.78;4764201;29;19930;-61
2023/09/09 08:21:03;;;;;;;;;;;;;;;34.56;nan;97811.16;4758472;29;19936;-60
2023/09/09 08:23:32;;;;;;;;;;;;;;;34.16;nan;97803.47;4771382;29;19957;-60
2023/09/09 08:26:02;;;;;;;;;;;;;;;34.21;nan;97786.69;4756463;29;21200;-62
2023/09/09 08:28:32;;;;;;;;;;;;;;;34.40;nan;97791.28;4769448;29;20092;-60
2023/09/09 08:31:10;;;;;;;;;;;;;;;34.64;nan;97782.59;4765203;29;19965;-61
2023/09/09 08:33:39;;;;;;;;;;;;;;;34.76;nan;97796.13;4765587;29;19987;-60
2023/09/09 08:36:08;;;;;;;;;;;;;;;34.78;nan;97782.00;4757016;29;19975;-60
2023/09/09 08:38:56;;;;;;;;;;;;;;;34.87;nan;97779.75;4771552;29;19948;-60
2023/09/09 08:41:25;;;;;;;;;;;;;;;34.89;nan;97785.66;4771349;29;20418;-60
2023/09/09 08:44:03;;;;;;;;;;;;;;;34.92;nan;97776.69;4770492;29;19936;-60
2023/09/09 08:46:32;;;;;;;;;;;;;;;34.75;nan;97766.22;4768317;29;19936;-60
2023/09/09 08:49:07;;;;;;;;;;;;;;;34.83;nan;97762.41;4772798;29;20036;-60
2023/09/09 08:51:48;;;;;;;;;;;;;;;34.75;nan;97753.25;4771861;29;19933;-60
2023/09/09 08:54:18;;;;;;;;;;;;;;;34.94;nan;97752.31;4765233;29;19929;-61
2023/09/09 08:56:48;;;;;;;;;;;;;;;34.85;nan;97751.81;4762949;29;19973;-61
2023/09/09 08:59:18;;;;;;;;;;;;;;;34.78;nan;97749.00;4767048;29;19926;-61
2023/09/09 09:01:49;;;;;;;;;;;;;;;34.65;nan;97742.91;4766735;29;19934;-61
2023/09/09 09:04:19;;;;;;;;;;;;;;;34.53;nan;97745.88;4771283;29;19940;-62
2023/09/09 09:06:49;;;;;;;;;;;;;;;34.50;nan;97739.19;4764959;29;19930;-62
2023/09/09 09:09:19;;;;;;;;;;;;;;;34.56;nan;97739.66;4764689;29;20024;-61
2023/09/09 09:11:48;;;;;;;;;;;;;;;34.68;nan;97740.22;4767871;29;19925;-60
2023/09/09 09:14:17;;;;;;;;;;;;;;;34.81;nan;97731.72;4770330;29;19935;-59
2023/09/09 09:16:47;;;;;;;;;;;;;;;34.70;nan;97732.38;4771777;29;19932;-59
2023/09/09 09:19:29;;;;;;;;;;;;;;;34.43;nan;97722.59;4770447;29;19925;-60
2023/09/09 09:21:59;;;;;;;;;;;;;;;34.25;nan;97724.31;4768523;29;20699;-59
2023/09/09 09:24:28;;;;;;;;;;;;;;;34.19;nan;97723.81;4769841;29;20355;-59
2023/09/09 09:26:58;;;;;;;;;;;;;;;34.23;nan;97713.66;4765959;29;19925;-59
2023/09/09 09:29:38;;;;;;;;;;;;;;;34.38;nan;97708.38;4768213;29;20025;-59
2023/09/09 09:32:08;;;;;;;;;;;;;;;34.34;nan;97700.06;4764972;29;19932;-59
2023/09/09 09:34:37;;;;;;;;;;;;;;;34.36;nan;97697.72;4771250;29;20634;-60
2023/09/09 09:37:10;;;;;;;;;;;;;;;34.32;nan;97702.41;4768077;29;20033;-61
2023/09/09 09:39:40;;;;;;;;;;;;;;;34.38;nan;97694.63;4763748;29;19930;-60
2023/09/09 09:42:12;;;;;;;;;;;;;;;34.28;nan;97696.06;4768545;29;19925;-60
2023/09/09 09:44:42;;;;;;;;;;;;;;;34.27;nan;97684.25;4765462;29;20002;-61
2023/09/09 09:47:11;;;;;;;;;;;;;;;34.36;nan;97683.19;4766873;29;19930;-61
2023/09/09 09:49:43;;;;;;;;;;;;;;;34.35;nan;97682.38;4764932;29;19926;-61
2023/09/09 09:52:22;;;;;;;;;;;;;;;34.38;nan;97675.38;4752159;29;20137;-60
2023/09/09 09:55:15;;;;;;;;;;;;;;;34.27;nan;97675.22;4768820;29;20218;-61
2023/09/09 09:57:46;;;;;;;;;;;;;;;34.17;nan;97676.66;4763990;29;19965;-60
2023/09/09 10:00:16;;;;;;;;;;;;;;;34.14;nan;97676.59;4769036;29;20400;-62
2023/09/09 10:02:46;;;;;;;;;;;;;;;34.18;nan;97666.47;4443209;29;10000341;-60
2023/09/09 10:05:15;;;;;;;;;;;;;;;34.12;nan;97660.47;4764308;29;19986;-61
2023/09/09 10:07:45;;;;;;;;;;;;;;;34.21;nan;97660.25;4766407;29;19932;-61
2023/09/09 10:10:16;;;;;;;;;;;;;;;34.25;nan;97650.06;4765585;29;20403;-61
2023/09/09 10:12:51;;;;;;;;;;;;;;;34.26;nan;97640.63;4764228;29;19928;-59
2023/09/09 10:15:23;;;;;;;;;;;;;;;34.26;nan;97641.44;4766276;29;19995;-61
2023/09/09 10:17:54;;;;;;;;;;;;;;;34.18;nan;97636.22;4765274;29;19936;-61
2023/09/09 10:20:23;;;;;;;;;;;;;;;34.10;nan;97635.31;4758796;29;19933;-61
2023/09/09 10:22:59;;;;;;;;;;;;;;;33.96;nan;97639.81;4760577;29;20492;-61
2023/09/09 10:25:31;;;;;;;;;;;;;;;34.01;nan;97628.50;4764046;29;19926;-60
2023/09/09 10:28:02;;;;;;;;;;;;;;;34.07;nan;97627.03;4759570;29;19933;-60
2023/09/09 10:30:31;;;;;;;;;;;;;;;34.03;nan;97624.25;4764521;29;20030;-61
2023/09/09 10:33:01;;;;;;;;;;;;;;;33.93;nan;97618.59;4433101;29;10000104;-62
2023/09/09 10:35:30;;;;;;;;;;;;;;;33.70;nan;97621.41;4758922;29;19925;-62
2023/09/09 10:38:00;;;;;;;;;;;;;;;33.65;nan;97618.94;4759695;29;19951;-61
2023/09/09 10:40:29;;;;;;;;;;;;;;;33.74;nan;97625.78;4758806;29;20012;-61
2023/09/09 10:42:58;;;;;;;;;;;;;;;33.81;nan;97622.34;4763590;29;19925;-61
2023/09/09 10:45:28;;;;;;;;;;;;;;;33.80;nan;97629.00;4762777;29;19977;-61
2023/09/09 10:47:58;;;;;;;;;;;;;;;33.80;nan;97626.25;4763700;29;19925;-62
2023/09/09 10:50:47;;;;;;;;;;;;;;;33.66;nan;97617.81;4763961;29;20000;-63
2023/09/09 10:53:28;;;;;;;;;;;;;;;33.76;nan;97617.97;4765122;29;20417;-63
2023/09/09 10:55:59;;;;;;;;;;;;;;;33.65;nan;97610.69;4760284;29;19936;-62
2023/09/09 10:58:39;;;;;;;;;;;;;;;33.67;nan;97619.41;4761248;29;19937;-63
2023/09/09 11:01:09;;;;;;;;;;;;;;;33.46;nan;97610.81;4757141;29;19926;-63
2023/09/09 11:03:41;;;;;;;;;;;;;;;33.48;nan;97608.47;4758084;29;20361;-63
2023/09/09 11:06:19;;;;;;;;;;;;;;;33.51;nan;97605.78;4762431;29;19926;-60
2023/09/09 11:08:48;;;;;;;;;;;;;;;33.41;nan;97606.44;4756718;29;20004;-61
2023/09/09 11:11:18;;;;;;;;;;;;;;;33.39;nan;97603.25;4757729;29;19934;-62
2023/09/09 11:13:51;;;;;;;;;;;;;;;33.29;nan;97610.16;4760376;29;20001;-63
2023/09/09 11:16:28;;;;;;;;;;;;;;;33.29;nan;97599.16;4750028;29;19929;-62
2023/09/09 11:19:13;;;;;;;;;;;;;;;33.10;nan;97606.69;4759392;29;19929;-63
2023/09/09 11:21:46;;;;;;;;;;;;;;;33.06;nan;97595.63;4756280;29;19991;-63
2023/09/09 11:24:15;;;;;;;;;;;;;;;33.01;nan;97595.16;4761306;29;20563;-61
2023/09/09 11:26:45;;;;;;;;;;;;;;;32.97;nan;97595.09;4764834;29;20481;-61
2023/09/09 11:29:18;;;;;;;;;;;;;;;32.90;nan;97595.75;4764630;29;21330;-61
2023/09/09 11:32:02;;;;;;;;;;;;;;;32.88;nan;97595.31;4763223;29;19926;-63
2023/09/09 11:34:32;;;;;;;;;;;;;;;32.83;nan;97594.84;4762273;29;19955;-62
2023/09/09 11:37:03;;;;;;;;;;;;;;;32.85;nan;97598.00;4762632;29;19933;-61
2023/09/09 11:39:40;;;;;;;;;;;;;;;32.70;nan;97587.94;4753773;29;19929;-67
2023/09/09 11:42:09;;;;;;;;;;;;;;;32.64;nan;97583.91;4764802;29;19933;-61
2023/09/09 11:44:42;;;;;;;;;;;;;;;32.61;nan;97590.09;4766190;29;19929;-61
2023/09/09 11:47:11;;;;;;;;;;;;;;;32.56;nan;97593.94;4766594;29;19960;-62
2023/09/09 11:49:42;;;;;;;;;;;;;;;32.57;nan;97595.53;4762909;29;20448;-68
2023/09/09 11:52:12;;;;;;;;;;;;;;;32.50;nan;97596.16;4749660;29;19934;-61
2023/09/09 11:54:44;;;;;;;;;;;;;;;32.51;nan;97594.22;4762943;29;19940;-62
2023/09/09 11:57:13;;;;;;;;;;;;;;;32.50;nan;97601.66;4757501;29;19929;-62
2023/09/09 11:59:45;;;;;;;;;;;;;;;32.49;nan;97589.09;4764143;29;19944;-64
2023/09/09 12:02:21;;;;;;;;;;;;;;;32.49;nan;97589.09;4762217;29;20986;-63
2023/09/09 12:04:57;;;;;;;;;;;;;;;32.38;nan;97593.59;4765611;29;21338;-61
2023/09/09 12:07:28;;;;;;;;;;;;;;;32.32;nan;97591.50;4765376;29;19937;-62
2023/09/09 12:09:59;;;;;;;;;;;;;;;32.30;nan;97591.06;4767566;29;20016;-61
2023/09/09 12:12:29;;;;;;;;;;;;;;;32.28;nan;97582.41;4434907;29;10000004;-62
2023/09/09 12:14:59;;;;;;;;;;;;;;;32.32;nan;97584.06;4762240;29;20720;-61
2023/09/09 12:17:29;;;;;;;;;;;;;;;32.29;nan;97576.56;4763199;29;20404;-62
2023/09/09 12:19:58;;;;;;;;;;;;;;;32.21;nan;97587.75;4762540;29;20346;-62
2023/09/09 12:22:28;;;;;;;;;;;;;;;32.23;nan;97586.22;4759345;29;19933;-62
2023/09/09 12:25:00;;;;;;;;;;;;;;;32.25;nan;97583.13;4760514;29;19929;-62
2023/09/09 12:27:45;;;;;;;;;;;;;;;32.21;nan;97590.50;4764551;29;19955;-63
2023/09/09 12:30:33;;;;;;;;;;;;;;;32.15;nan;97589.19;4763799;29;20071;-61
2023/09/09 12:33:10;;;;;;;;;;;;;;;32.15;nan;97581.75;4761979;29;19929;-62
2023/09/09 12:35:39;;;;;;;;;;;;;;;32.08;nan;97585.13;4768402;29;19933;-62
2023/09/09 12:38:08;;;;;;;;;;;;;;;32.11;nan;97577.38;4767682;29;19936;-61
2023/09/09 12:40:45;;;;;;;;;;;;;;;32.09;nan;97580.47;4768270;29;19925;-62
2023/09/09 12:43:16;;;;;;;;;;;;;;;32.06;nan;97576.47;4765498;29;19929;-62
2023/09/09 12:45:49;;;;;;;;;;;;;;;32.14;nan;97576.63;4764178;29;19925;-61
2023/09/09 12:48:18;;;;;;;;;;;;;;;32.12;nan;97579.75;4760259;29;19932;-63
2023/09/09 12:50:56;;;;;;;;;;;;;;;32.14;nan;97582.13;4763660;29;19929;-61
2023/09/09 12:53:41;;;;;;;;;;;;;;;32.19;nan;97582.63;4758986;29;19925;-61
2023/09/09 12:56:10;;;;;;;;;;;;;;;32.11;nan;97577.38;4764390;29;20463;-62
2023/09/09 12:58:39;;;;;;;;;;;;;;;32.05;nan;97577.63;4758519;29;19929;-62
2023/09/09 13:01:09;;;;;;;;;;;;;;;32.00;nan;97569.69;4766474;29;19990;-62
2023/09/09 13:03:42;;;;;;;;;;;;;;;31.91;nan;97569.09;4772069;29;19925;-62
2023/09/09 13:06:12;;;;;;;;;;;;;;;31.93;nan;97569.53;4776793;29;20239;-61
2023/09/09 13:08:41;;;;;;;;;;;;;;;31.93;nan;97580.50;4777396;29;20441;-62
2023/09/09 13:11:10;;;;;;;;;;;;;;;31.88;nan;97575.31;4764205;29;19941;-62
2023/09/09 13:15:55;;;;;;;21.63;14.63;;;;;;;31.79;nan;97576.66;5036893;27;20436;-65
2023/09/09 13:18:25;;;;;;;19.35;13.95;;;;;;;31.74;nan;97572.25;5024349;28;20057;-62
2023/09/09 13:20:54;;;;;;;26.70;14.32;;;;;;;31.85;nan;97586.19;5020613;28;20068;-65
2023/09/09 13:23:23;;;;;;;20.60;14.88;;;;;;;31.83;nan;97581.06;5029681;28;20136;-66